Time,TemperatureF,DewpointF,PressureIn,WindDirection,WindDirectionDegrees,WindSpeedMPH,WindSpeedGustMPH,Humidity,HourlyPrecipIn,Conditions,Clouds,dailyrainin,SoftwareType,DateUTC
2013-06-24 00:10:00,73.6,67.0,29.91,ENE,67,0.0,-999.0,80,-99.99,,,0.00,Acu-Link.com,2013-06-24 04:10:00,
2013-06-24 00:25:00,72.0,66.9,29.92,ENE,67,0.0,-999.0,84,-99.99,,,0.00,Acu-Link.com,2013-06-24 04:25:00,
2013-06-24 00:40:00,71.2,66.8,29.91,ENE,67,0.0,-999.0,86,-99.99,,,0.00,Acu-Link.com,2013-06-24 04:40:00,
2013-06-24 00:56:00,71.2,67.1,29.92,South,180,0.0,-999.0,87,-99.99,,,0.00,Acu-Link.com,2013-06-24 04:56:00,
2013-06-24 01:11:00,72.0,67.6,29.91,SSE,157,2.2,-999.0,86,-99.99,,,0.00,Acu-Link.com,2013-06-24 05:11:00,
2013-06-24 01:26:00,71.2,66.8,29.91,ESE,112,0.0,-999.0,86,-99.99,,,0.00,Acu-Link.com,2013-06-24 05:26:00,
2013-06-24 01:57:00,70.3,66.9,29.90,East,90,0.0,-999.0,89,-99.99,,,0.00,Acu-Link.com,2013-06-24 05:57:00,
2013-06-24 02:12:00,69.6,66.5,29.90,East,90,0.0,-999.0,90,-99.99,,,0.00,Acu-Link.com,2013-06-24 06:12:00,
2013-06-24 02:43:00,68.7,66.6,29.89,East,90,0.0,-999.0,93,-99.99,,,0.00,Acu-Link.com,2013-06-24 06:43:00,
2013-06-24 02:58:00,68.5,66.7,29.90,SSE,157,0.0,-999.0,94,-99.99,,,0.00,Acu-Link.com,2013-06-24 06:58:00,
2013-06-24 03:14:00,68.4,66.6,29.89,SSE,157,0.0,-999.0,94,-99.99,,,0.00,Acu-Link.com,2013-06-24 07:14:00,
2013-06-24 03:29:00,68.2,66.7,29.90,South,180,0.0,-999.0,95,-99.99,,,0.00,Acu-Link.com,2013-06-24 07:29:00,
2013-06-24 03:44:00,68.2,67.0,29.89,South,180,0.0,-999.0,96,-99.99,,,0.00,Acu-Link.com,2013-06-24 07:44:00,
2013-06-24 03:59:00,68.0,66.8,29.89,ENE,67,0.0,-999.0,96,-99.99,,,0.00,Acu-Link.com,2013-06-24 07:59:00,
2013-06-24 04:31:00,67.5,66.6,29.89,NE,45,0.0,-999.0,97,-99.99,,,0.00,Acu-Link.com,2013-06-24 08:31:00,
2013-06-24 04:46:00,67.3,66.4,29.89,ENE,67,0.0,-999.0,97,-99.99,,,0.00,Acu-Link.com,2013-06-24 08:46:00,
2013-06-24 05:01:00,67.1,66.2,29.89,East,90,0.0,-999.0,97,-99.99,,,0.00,Acu-Link.com,2013-06-24 09:01:00,
2013-06-24 05:16:00,66.9,66.0,29.89,ESE,112,0.0,-999.0,97,-99.99,,,0.00,Acu-Link.com,2013-06-24 09:16:00,
2013-06-24 05:47:00,68.2,66.4,29.90,South,180,0.0,-999.0,94,-99.99,,,0.00,Acu-Link.com,2013-06-24 09:47:00,
2013-06-24 06:02:00,68.2,66.7,29.90,SSE,157,1.7,-999.0,95,-99.99,,,0.00,Acu-Link.com,2013-06-24 10:02:00,
2013-06-24 06:32:00,67.6,66.1,29.91,East,90,0.0,-999.0,95,-99.99,,,0.00,Acu-Link.com,2013-06-24 10:32:00,
2013-06-24 06:48:00,68.7,66.6,29.91,SSE,157,2.7,-999.0,93,-99.99,,,0.00,Acu-Link.com,2013-06-24 10:48:00,
2013-06-24 07:03:00,69.1,66.7,29.92,SE,135,2.7,-999.0,92,-99.99,,,0.00,Acu-Link.com,2013-06-24 11:03:00,
2013-06-24 07:33:00,70.3,66.9,29.93,South,180,4.2,-999.0,89,-99.99,,,0.00,Acu-Link.com,2013-06-24 11:33:00,
2013-06-24 08:04:00,73.4,68.3,29.93,South,180,3.7,-999.0,84,-99.99,,,0.00,Acu-Link.com,2013-06-24 12:04:00,
2013-06-24 08:19:00,73.9,68.0,29.94,SSE,157,4.2,-999.0,82,-99.99,,,0.00,Acu-Link.com,2013-06-24 12:19:00,
2013-06-24 08:34:00,74.5,69.0,29.93,SSE,157,4.7,-999.0,83,-99.99,,,0.00,Acu-Link.com,2013-06-24 12:34:00,
2013-06-24 08:49:00,75.6,69.3,29.94,WSW,247,4.7,-999.0,81,-99.99,,,0.00,Acu-Link.com,2013-06-24 12:49:00,
2013-06-24 09:04:00,76.8,70.1,29.95,West,270,2.2,-999.0,80,-99.99,,,0.00,Acu-Link.com,2013-06-24 13:04:00,
2013-06-24 09:19:00,76.5,69.5,29.95,West,270,2.2,-999.0,79,-99.99,,,0.00,Acu-Link.com,2013-06-24 13:19:00,
2013-06-24 09:37:00,77.2,69.8,29.95,WSW,247,5.3,-999.0,78,-99.99,,,0.00,Acu-Link.com,2013-06-24 13:37:00,
2013-06-24 09:52:00,77.9,70.5,29.96,South,180,2.2,-999.0,78,-99.99,,,0.00,Acu-Link.com,2013-06-24 13:52:00,
2013-06-24 10:07:00,78.8,70.6,29.95,SSE,157,4.2,-999.0,76,-99.99,,,0.00,Acu-Link.com,2013-06-24 14:07:00,
2013-06-24 10:22:00,79.3,70.7,29.95,WSW,247,3.7,-999.0,75,-99.99,,,0.00,Acu-Link.com,2013-06-24 14:22:00,
2013-06-24 10:37:00,80.8,71.3,29.95,West,270,4.2,-999.0,73,-99.99,,,0.00,Acu-Link.com,2013-06-24 14:37:00,
2013-06-24 10:53:00,80.6,71.5,29.94,SSE,157,6.8,-999.0,74,-99.99,,,0.00,Acu-Link.com,2013-06-24 14:53:00,
2013-06-24 11:08:00,82.4,72.0,29.94,SSW,202,2.2,-999.0,71,-99.99,,,0.00,Acu-Link.com,2013-06-24 15:08:00,
2013-06-24 11:38:00,84.0,72.3,29.94,South,180,3.7,-999.0,68,-99.99,,,0.00,Acu-Link.com,2013-06-24 15:38:00,
2013-06-24 11:54:00,83.1,71.0,29.94,SW,225,3.2,-999.0,67,-99.99,,,0.00,Acu-Link.com,2013-06-24 15:54:00,
2013-06-24 12:09:00,81.9,70.3,29.93,SSW,202,2.7,-999.0,68,-99.99,,,0.00,Acu-Link.com,2013-06-24 16:09:00,
2013-06-24 12:39:00,77.9,66.5,29.94,WSW,247,4.7,-999.0,68,-99.99,,,0.00,Acu-Link.com,2013-06-24 16:39:00,
2013-06-24 12:55:00,74.8,65.2,29.93,SE,135,4.7,-999.0,72,-99.99,,,0.00,Acu-Link.com,2013-06-24 16:55:00,
2013-06-24 13:10:00,73.0,66.5,29.93,SSE,157,3.2,-999.0,80,-99.99,,,0.01,Acu-Link.com,2013-06-24 17:10:00,
2013-06-24 13:25:00,72.9,67.8,29.93,ESE,112,4.2,-999.0,84,-99.99,,,0.01,Acu-Link.com,2013-06-24 17:25:00,
2013-06-24 13:40:00,73.4,68.3,29.93,South,180,5.8,-999.0,84,-99.99,,,0.02,Acu-Link.com,2013-06-24 17:40:00,
2013-06-24 14:25:00,84.4,71.3,29.90,SE,135,3.7,-999.0,65,-99.99,,,0.02,Acu-Link.com,2013-06-24 18:25:00,
2013-06-24 14:41:00,83.8,71.2,29.89,WSW,247,3.2,-999.0,66,-99.99,,,0.02,Acu-Link.com,2013-06-24 18:41:00,
2013-06-24 15:11:00,81.1,69.1,29.91,West,270,8.9,-999.0,67,-99.99,,,0.02,Acu-Link.com,2013-06-24 19:11:00,
2013-06-24 15:26:00,74.3,67.0,29.92,West,270,8.9,-999.0,78,-99.99,,,0.02,Acu-Link.com,2013-06-24 19:26:00,
2013-06-24 15:57:00,71.4,69.3,29.90,WSW,247,1.1,-999.0,93,-99.99,,,0.13,Acu-Link.com,2013-06-24 19:57:00,
2013-06-24 16:12:00,71.8,68.7,29.90,WNW,292,2.2,-999.0,90,-99.99,,,0.13,Acu-Link.com,2013-06-24 20:12:00,
2013-06-24 16:43:00,71.1,68.3,29.87,WSW,247,1.1,-999.0,91,-99.99,,,0.15,Acu-Link.com,2013-06-24 20:43:00,
2013-06-24 16:58:00,71.8,69.3,29.86,SSW,202,0.0,-999.0,92,-99.99,,,0.17,Acu-Link.com,2013-06-24 20:58:00,
2013-06-24 17:13:00,72.0,68.9,29.86,SSW,202,2.2,-999.0,90,-99.99,,,0.17,Acu-Link.com,2013-06-24 21:13:00,
2013-06-24 17:29:00,72.3,68.2,29.86,ESE,112,2.2,-999.0,87,-99.99,,,0.17,Acu-Link.com,2013-06-24 21:29:00,
2013-06-24 17:46:00,72.9,69.8,29.86,East,90,0.0,-999.0,90,-99.99,,,0.17,Acu-Link.com,2013-06-24 21:46:00,
2013-06-24 18:01:00,74.1,70.0,29.86,SE,135,1.7,-999.0,87,-99.99,,,0.17,Acu-Link.com,2013-06-24 22:01:00,
2013-06-24 18:16:00,74.8,70.7,29.86,WSW,247,1.1,-999.0,87,-99.99,,,0.17,Acu-Link.com,2013-06-24 22:16:00,
2013-06-24 18:32:00,74.7,69.5,29.87,SSW,202,3.2,-999.0,84,-99.99,,,0.17,Acu-Link.com,2013-06-24 22:32:00,
2013-06-24 18:47:00,74.1,68.2,29.86,SW,225,4.2,-999.0,82,-99.99,,,0.17,Acu-Link.com,2013-06-24 22:47:00,
2013-06-24 19:17:00,73.2,68.4,29.86,South,180,3.7,-999.0,85,-99.99,,,0.17,Acu-Link.com,2013-06-24 23:17:00,
2013-06-24 19:48:00,73.2,68.4,29.84,SSE,157,2.2,-999.0,85,-99.99,,,0.17,Acu-Link.com,2013-06-24 23:48:00,
2013-06-24 20:03:00,73.0,68.6,29.85,WSW,247,2.2,-999.0,86,-99.99,,,0.17,Acu-Link.com,2013-06-25 00:03:00,
2013-06-24 20:18:00,73.0,68.9,29.86,WSW,247,1.7,-999.0,87,-99.99,,,0.17,Acu-Link.com,2013-06-25 00:18:00,
2013-06-24 20:33:00,73.0,68.9,29.86,West,270,1.7,-999.0,87,-99.99,,,0.17,Acu-Link.com,2013-06-25 00:33:00,
2013-06-24 20:49:00,73.2,68.4,29.86,SW,225,1.7,-999.0,85,-99.99,,,0.17,Acu-Link.com,2013-06-25 00:49:00,
2013-06-24 21:04:00,73.2,68.8,29.87,WSW,247,2.2,-999.0,86,-99.99,,,0.17,Acu-Link.com,2013-06-25 01:04:00,
2013-06-24 21:19:00,73.0,68.9,29.87,West,270,2.7,-999.0,87,-99.99,,,0.17,Acu-Link.com,2013-06-25 01:19:00,
2013-06-24 21:50:00,72.7,68.9,29.87,ESE,112,0.0,-999.0,88,-99.99,,,0.17,Acu-Link.com,2013-06-25 01:50:00,
2013-06-24 22:20:00,72.0,69.2,29.87,SSE,157,0.0,-999.0,91,-99.99,,,0.17,Acu-Link.com,2013-06-25 02:20:00,
2013-06-24 22:36:00,71.6,69.8,29.87,SSE,157,1.7,-999.0,94,-99.99,,,0.17,Acu-Link.com,2013-06-25 02:36:00,
2013-06-24 22:51:00,71.6,69.8,29.88,SSE,157,2.7,-999.0,94,-99.99,,,0.17,Acu-Link.com,2013-06-25 02:51:00,
2013-06-24 23:06:00,71.2,69.4,29.89,South,180,0.0,-999.0,94,-99.99,,,0.17,Acu-Link.com,2013-06-25 03:06:00,
2013-06-24 23:22:00,71.1,69.9,29.89,SSE,157,2.7,-999.0,96,-99.99,,,0.17,Acu-Link.com,2013-06-25 03:22:00,
2013-06-24 23:37:00,71.1,69.6,29.88,SSE,157,0.0,-999.0,95,-99.99,,,0.17,Acu-Link.com,2013-06-25 03:37:00,
2013-06-24 23:52:00,70.9,69.4,29.88,SSW,202,0.0,-999.0,95,-99.99,,,0.17,Acu-Link.com,2013-06-25 03:52:00,